createdAt,value
2023-01-21T00:03:47.599Z,0.52
2023-01-21T00:08:47.827Z,0.52
2023-01-21T00:13:46.741Z,0.49
2023-01-21T00:18:46.516Z,0.46
2023-01-21T00:23:44.035Z,0.44
2023-01-21T00:28:44.085Z,0.43
2023-01-21T00:33:43.067Z,0.4
2023-01-21T00:38:42.939Z,0.37
2023-01-21T00:43:42.134Z,0.33
2023-01-21T00:48:42.152Z,0.29
2023-01-21T00:53:42.025Z,0.27
2023-01-21T00:58:41.844Z,0.26
2023-01-21T01:03:42.827Z,0.26
2023-01-21T01:08:39.080Z,0.25
2023-01-21T01:13:39.077Z,0.25
2023-01-21T01:18:38.501Z,0.21
2023-01-21T01:23:37.860Z,0.17
2023-01-21T01:28:37.540Z,0.13
2023-01-21T01:33:37.927Z,0.08
2023-01-21T01:38:37.204Z,0.05
2023-01-21T01:43:38.498Z,0.03
2023-01-21T01:48:34.715Z,0.03
2023-01-21T01:53:34.732Z,0
2023-01-21T01:58:34.152Z,0
2023-01-21T01:59:56.248Z,0
2023-01-21T02:04:54.051Z,-0.05
2023-01-21T02:09:54.266Z,-0.08
2023-01-21T02:14:54.192Z,-0.12
2023-01-21T02:19:52.867Z,-0.17
2023-01-21T02:24:52.783Z,-0.21
2023-01-21T02:29:52.195Z,-0.26
2023-01-21T02:34:52.048Z,-0.33
2023-01-21T02:39:51.758Z,-0.39
2023-01-21T02:44:53.126Z,-0.45
2023-01-21T02:49:49.767Z,-0.5
2023-01-21T02:54:49.211Z,-0.6
2023-01-21T02:59:12.694Z,-0.69
2023-01-21T03:04:12.642Z,-0.78
2023-01-21T03:09:11.812Z,-0.87
2023-01-21T03:14:11.867Z,-0.97
2023-01-21T03:19:11.339Z,-1.07
2023-01-21T03:24:12.185Z,-1.16
2023-01-21T03:29:08.574Z,-1.23
2023-01-21T03:34:08.386Z,-1.31
2023-01-21T03:39:07.644Z,-1.38
2023-01-21T03:44:07.647Z,-1.43
2023-01-21T03:49:05.124Z,-1.5
2023-01-21T03:54:05.057Z,-1.54
2023-01-21T03:58:51.355Z,-1.58
2023-01-21T04:03:51.056Z,-1.6
2023-01-21T04:08:50.285Z,-1.67
2023-01-21T04:13:51.251Z,-1.72
2023-01-21T04:18:50.087Z,-1.74
2023-01-21T04:23:49.699Z,-1.76
2023-01-21T04:28:47.518Z,-1.74
2023-01-21T04:33:47.466Z,-1.71
2023-01-21T04:38:46.516Z,-1.64
2023-01-21T04:43:46.505Z,-1.57
2023-01-21T04:48:45.662Z,-1.52
2023-01-21T04:53:45.603Z,-1.44
2023-01-21T04:58:45.516Z,-1.39
2023-01-21T05:03:45.213Z,-1.36
2023-01-21T05:08:46.385Z,-1.36
2023-01-21T05:13:42.684Z,-1.4
2023-01-21T05:18:44.520Z,-1.51
2023-01-21T05:23:42.088Z,-1.62
2023-01-21T05:28:41.945Z,-1.73
2023-01-21T05:33:39.513Z,-1.8
2023-01-21T05:38:39.224Z,-1.85
2023-01-21T05:43:38.482Z,-1.91
2023-01-21T05:48:38.329Z,-1.97
2023-01-21T05:53:37.117Z,-2.08
2023-01-21T05:58:36.901Z,-2.25
2023-01-21T05:59:58.404Z,-2.33
2023-01-21T06:04:57.868Z,-2.54
2023-01-21T06:09:57.258Z,-2.71
2023-01-21T06:14:57.589Z,-2.8
2023-01-21T06:19:57.104Z,-2.86
2023-01-21T06:24:58.184Z,-2.9
2023-01-21T06:29:54.474Z,-2.86
2023-01-21T06:34:54.311Z,-2.82
2023-01-21T06:39:53.584Z,-2.78
2023-01-21T06:44:53.808Z,-2.72
2023-01-21T06:49:51.145Z,-2.68
2023-01-21T06:54:51.504Z,-2.65
2023-01-21T06:58:55.777Z,-2.6
2023-01-21T07:03:55.925Z,-2.55
2023-01-21T07:08:55.172Z,-2.51
2023-01-21T07:13:54.882Z,-2.49
2023-01-21T07:18:54.810Z,-2.45
2023-01-21T07:23:54.753Z,-2.43
2023-01-21T07:28:55.704Z,-2.36
2023-01-21T07:33:52.228Z,-2.35
2023-01-21T07:38:51.623Z,-2.31
2023-01-21T07:43:51.335Z,-2.28
2023-01-21T07:48:50.707Z,-2.23
2023-01-21T07:53:50.426Z,-2.18
2023-01-21T07:58:50.945Z,-2.14
2023-01-21T08:03:50.364Z,-2.1
2023-01-21T08:08:51.648Z,-2.06
2023-01-21T08:13:47.815Z,-1.99
2023-01-21T08:18:47.992Z,-1.96
2023-01-21T08:23:47.105Z,-1.9
2023-01-21T08:28:47.016Z,-1.84
2023-01-21T08:33:44.645Z,-1.78
2023-01-21T08:38:44.500Z,-1.74
2023-01-21T08:43:43.836Z,-1.7
2023-01-21T08:48:43.850Z,-1.67
2023-01-21T08:53:42.975Z,-1.64
2023-01-21T08:58:42.974Z,-1.57
2023-01-21T09:03:42.861Z,-1.49
2023-01-21T09:08:42.762Z,-1.43
2023-01-21T09:13:43.694Z,-1.41
2023-01-21T09:18:40.809Z,-1.38
2023-01-21T09:23:40.172Z,-1.36
2023-01-21T09:28:39.923Z,-1.37
2023-01-21T09:33:39.373Z,-1.33
2023-01-21T09:38:39.038Z,-1.29
2023-01-21T09:43:39.512Z,-1.2
2023-01-21T09:49:42.036Z,-1.04
2023-01-21T09:53:40.019Z,-0.92
2023-01-21T09:58:38.158Z,-0.72
2023-01-21T09:59:59.871Z,-0.66
2023-01-21T10:05:01.243Z,-0.58
2023-01-21T10:09:57.367Z,-0.63
2023-01-21T10:14:57.400Z,-0.56
2023-01-21T10:19:56.679Z,-0.57
2023-01-21T10:24:56.856Z,-0.49
2023-01-21T10:29:54.208Z,-0.35
2023-01-21T10:34:54.027Z,-0.3
2023-01-21T10:39:53.369Z,-0.22
2023-01-21T10:44:53.146Z,-0.27
2023-01-21T10:49:52.629Z,-0.3
2023-01-21T10:54:53.445Z,-0.3
2023-01-21T10:59:14.875Z,-0.51
2023-01-21T11:04:14.874Z,-0.63
2023-01-21T11:09:12.412Z,-0.69
2023-01-21T11:14:12.548Z,-0.71
2023-01-21T11:19:11.751Z,-0.66
2023-01-21T11:24:11.487Z,-0.51
2023-01-21T11:29:10.945Z,-0.48
2023-01-21T11:34:10.311Z,-0.51
2023-01-21T11:39:10.042Z,-0.46
2023-01-21T11:44:09.897Z,-0.43
2023-01-21T11:49:10.995Z,-0.56
2023-01-21T11:54:07.301Z,-0.62
2023-01-21T11:58:53.178Z,-0.69
2023-01-21T12:03:53.179Z,-0.77
2023-01-21T12:08:52.434Z,-0.76
2023-01-21T12:13:50.016Z,-0.78
2023-01-21T12:18:49.608Z,-0.75
2023-01-21T12:23:48.792Z,-0.79
2023-01-21T12:28:48.459Z,-0.82
2023-01-21T12:33:46.684Z,-0.85
2023-01-21T12:38:46.724Z,-0.86
2023-01-21T12:43:46.405Z,-0.85
2023-01-21T12:48:46.049Z,-0.85
2023-01-21T12:53:43.681Z,-0.83
2023-01-21T12:58:43.446Z,-0.78
2023-01-21T13:00:05.048Z,-0.77
2023-01-21T13:05:04.409Z,-0.71
2023-01-21T13:10:03.535Z,-0.67
2023-01-21T13:15:03.527Z,-0.62
2023-01-21T13:20:03.345Z,-0.6
2023-01-21T13:25:03.290Z,-0.58
2023-01-21T13:30:03.952Z,-0.58
2023-01-21T13:35:00.432Z,-0.61
2023-01-21T13:40:00.631Z,-0.61
2023-01-21T13:44:59.671Z,-0.62
2023-01-21T13:49:59.901Z,-0.62
2023-01-21T13:54:57.223Z,-0.57
2023-01-21T13:59:17.346Z,-0.54
2023-01-21T14:04:16.965Z,-0.52
2023-01-21T14:09:19.223Z,-0.51
2023-01-21T14:14:13.812Z,-0.46
2023-01-21T14:19:13.723Z,-0.46
2023-01-21T14:24:13.076Z,-0.46
2023-01-21T14:29:12.951Z,-0.48
2023-01-21T14:34:10.428Z,-0.48
2023-01-21T14:39:10.370Z,-0.47
2023-01-21T14:44:09.573Z,-0.52
2023-01-21T14:49:09.245Z,-0.52
2023-01-21T14:54:08.645Z,-0.56
2023-01-21T14:58:58.521Z,-0.58
2023-01-21T15:03:58.756Z,-0.61
2023-01-21T15:08:57.901Z,-0.62
2023-01-21T15:13:59.039Z,-0.64
2023-01-21T15:18:55.400Z,-0.65
2023-01-21T15:23:55.202Z,-0.65
2023-01-21T15:28:54.716Z,-0.66
2023-01-21T15:33:54.856Z,-0.67
2023-01-21T15:38:52.067Z,-0.69
2023-01-21T15:43:52.347Z,-0.7
2023-01-21T15:48:52.100Z,-0.71
2023-01-21T15:53:53.345Z,-0.74
2023-01-21T15:58:49.739Z,-0.75
2023-01-21T16:03:49.612Z,-0.8
2023-01-21T16:08:48.873Z,-0.79
2023-01-21T16:13:48.778Z,-0.79
2023-01-21T16:18:46.392Z,-0.79
2023-01-21T16:23:46.329Z,-0.8
2023-01-21T16:28:45.359Z,-0.79
2023-01-21T16:33:45.087Z,-0.79
2023-01-21T16:38:44.522Z,-0.79
2023-01-21T16:43:44.403Z,-0.77
2023-01-21T16:48:44.194Z,-0.75
2023-01-21T16:53:44.071Z,-0.73
2023-01-21T16:58:45.109Z,-0.73
2023-01-21T17:03:41.644Z,-0.72
2023-01-21T17:08:41.511Z,-0.69
2023-01-21T17:13:40.654Z,-0.68
2023-01-21T17:18:40.911Z,-0.67
2023-01-21T17:23:38.070Z,-0.68
2023-01-21T17:28:37.524Z,-0.67
2023-01-21T17:33:37.323Z,-0.65
2023-01-21T17:38:38.531Z,-0.64
2023-01-21T17:43:34.731Z,-0.62
2023-01-21T17:48:34.830Z,-0.61
2023-01-21T17:53:34.292Z,-0.61
2023-01-21T17:58:33.991Z,-0.58
2023-01-21T17:59:55.920Z,-0.58
2023-01-21T18:04:56.094Z,-0.6
2023-01-21T18:09:54.918Z,-0.6
2023-01-21T18:14:54.680Z,-0.61
2023-01-21T18:24:53.652Z,-0.61
2023-01-21T18:29:53.460Z,-0.63
2023-01-21T18:34:53.091Z,-0.68
2023-01-21T18:39:54.237Z,-0.7
2023-01-21T18:44:50.570Z,-0.7
2023-01-21T18:49:50.528Z,-0.69
2023-01-21T18:54:49.677Z,-0.69
2023-01-21T18:59:10.965Z,-0.66
2023-01-21T19:04:09.802Z,-0.65
2023-01-21T19:09:08.424Z,-0.65
2023-01-21T19:14:08.249Z,-0.62
2023-01-21T19:19:09.087Z,-0.58
2023-01-21T19:24:05.406Z,-0.56
2023-01-21T19:29:05.358Z,-0.54
2023-01-21T19:34:04.831Z,-0.51
2023-01-21T19:39:04.700Z,-0.51
2023-01-21T19:44:02.065Z,-0.52
2023-01-21T19:49:02.167Z,-0.54
2023-01-21T19:54:01.101Z,-0.52
2023-01-21T19:58:56.776Z,-0.52
2023-01-21T20:04:00.413Z,-0.52
2023-01-21T20:08:55.808Z,-0.5
2023-01-21T20:13:56.166Z,-0.48
2023-01-21T20:18:55.530Z,-0.45
2023-01-21T20:23:56.836Z,-0.48
2023-01-21T20:28:53.725Z,-0.55
2023-01-21T20:33:53.106Z,-0.64
2023-01-21T20:38:52.504Z,-0.71
2023-01-21T20:43:51.627Z,-0.78
2023-01-21T20:48:51.409Z,-0.82
2023-01-21T20:53:51.553Z,-0.85
2023-01-21T20:58:50.756Z,-0.87
2023-01-21T21:03:52.239Z,-0.91
2023-01-21T21:08:48.218Z,-0.95
2023-01-21T21:13:48.275Z,-0.98
2023-01-21T21:18:47.654Z,-1
2023-01-21T21:23:47.273Z,-1.01
2023-01-21T21:28:44.973Z,-1.03
2023-01-21T21:33:44.991Z,-1.04
2023-01-21T21:38:44.057Z,-1.05
2023-01-21T21:43:43.695Z,-1.08
2023-01-21T21:48:42.944Z,-1.1
2023-01-21T21:53:42.829Z,-1.12
2023-01-21T21:58:42.704Z,-1.15
2023-01-21T22:03:42.392Z,-1.16
2023-01-21T22:08:43.554Z,-1.17
2023-01-21T22:13:40.506Z,-1.17
2023-01-21T22:18:40.583Z,-1.2
2023-01-21T22:23:42.049Z,-1.21
2023-01-21T22:28:37.996Z,-1.22
2023-01-21T22:33:38.133Z,-1.22
2023-01-21T22:38:39.659Z,-1.2
2023-01-21T22:43:37.236Z,-1.17
2023-01-21T22:48:34.941Z,-1.16
2023-01-21T22:53:34.745Z,-1.15
2023-01-21T22:58:33.960Z,-1.14
2023-01-21T22:59:56.105Z,-1.14
2023-01-21T23:04:55.742Z,-1.13
2023-01-21T23:09:54.991Z,-1.13
2023-01-21T23:14:55.301Z,-1.12
2023-01-21T23:19:54.697Z,-1.12
2023-01-21T23:24:56.019Z,-1.11
2023-01-21T23:29:52.408Z,-1.11
2023-01-21T23:34:52.352Z,-1.1
2023-01-21T23:39:52.196Z,-1.1
2023-01-21T23:44:52.210Z,-1.09
2023-01-21T23:49:49.497Z,-1.07
2023-01-21T23:54:48.971Z,-1.05
2023-01-21T23:59:14.654Z,-1.05
